Thunder radar more information blitzortung!


Radar de pluja more information rain snow radar


Visita la nostra xarxa de llocs de meteo:

Template documentation
and downloads

And another site



No particular awareness of the weather is required.    There are no Weather-warnings

Pagina Historial Weather Underground text

Diari Resum Juny 7, 2016 Unitats:  Mètric    Imperial   Tant
« Previous Dia
SegĂźent Dia »
Diari Setmana Mensual Anual Personalitzada
  Maxima: Minima: Media:
Temperatura: -17.8 °C -9 °C -3.9 °C
Punt de rosada: -17.8 °C -12.3 °C -11.1 °C
Humitat: Humidity % 29 % 46 %
Wind Speed: 0 km/h 0 km/h 11.7 km/h
RĂ fegues de vent: 0 km/h - -
Vent:- - SSW
Pression baro: 0 hPa 34462.7 hPa -
Precipitacions: 0 mm    
Historical Graphs
 
 
Dades de taula per Juny 7, 2016
Temps Temperatura Punt de rosada Pression baro Vent Wind Speed RĂ fegues de vent Humitat Rainfall Rate (Hourly)
-17.8 °C -17.8 °C 0 hPa Calm     Humidity % 0 mm
00:00 -7.1 °C -12.3 °C 34496.6 hPa WSW 6 km/h 6 km/h 55 % 0 mm
00:05 -7.2 °C -12.2 °C 34496.6 hPa SW 6 km/h 6 km/h 56 % 0 mm
00:10 -7.2 °C -12.1 °C 34496.6 hPa SW 6 km/h 6 km/h 57 % 0 mm
00:15 -8.7 °C -11.5 °C 34567.7 hPa SW 2.6 km/h   72 % 0 mm
00:25 -8.5 °C -11.4 °C 34567.7 hPa SW 2.6 km/h   71 % 0 mm
00:35 -8.5 °C -11.6 °C 34567.7 hPa SW 2.6 km/h   70 % 0 mm
00:45 -8.5 °C -11.6 °C 34567.7 hPa SW 2.6 km/h   70 % 0 mm
00:55 -8.5 °C -11.7 °C 34567.7 hPa SW 2.6 km/h   69 % 0 mm
01:05 -8.6 °C -11.8 °C 34601.5 hPa SW 2.6 km/h   69 % 0 mm
01:15 -8.7 °C -11.8 °C 34601.5 hPa SW 2.6 km/h   70 % 0 mm
01:25 -8.7 °C -11.8 °C 34567.7 hPa SW 2.6 km/h   70 % 0 mm
01:35 -8.8 °C -11.8 °C 34601.5 hPa SW 2.6 km/h   71 % 0 mm
01:45 -8.8 °C -11.8 °C 34601.5 hPa WSW 2.6 km/h 5.1 km/h 70 % 0 mm
01:55 -8.8 °C -11.8 °C 34601.5 hPa Calm   2.6 km/h 70 % 0 mm
02:05 -9 °C -11.9 °C 34601.5 hPa WSW 2.6 km/h 2.6 km/h 71 % 0 mm
02:15 -8.8 °C -11.8 °C 34601.5 hPa SW 2.6 km/h 5.1 km/h 71 % 0 mm
02:25 -8.4 °C -11.5 °C 34601.5 hPa West 2.6 km/h 7.7 km/h 70 % 0 mm
02:35 -8.3 °C -11.6 °C 34601.5 hPa WNW 2.6 km/h 5.1 km/h 68 % 0 mm
02:45 -8.4 °C -11.4 °C 34601.5 hPa WSW 2.6 km/h 5.1 km/h 70 % 0 mm
02:55 -8.3 °C -11.5 °C 34635.4 hPa SW 5.1 km/h 7.7 km/h 69 % 0 mm
03:05 -8.3 °C -11.3 °C 34601.5 hPa SW 5.1 km/h 7.7 km/h 70 % 0 mm
03:15 -8 °C -11.2 °C 34601.5 hPa SW 2.6 km/h 7.7 km/h 69 % 0 mm
03:25 -7.8 °C -11 °C 34635.4 hPa SW 2.6 km/h 5.1 km/h 69 % 0 mm
03:35 -7.4 °C -10.8 °C 34635.4 hPa SW 2.6 km/h 7.7 km/h 68 % 0 mm
03:45 -7.1 °C -10.6 °C 34635.4 hPa Calm   5.1 km/h 67 % 0 mm
03:55 -6.9 °C -10.5 °C 34635.4 hPa SW 5.1 km/h 5.1 km/h 66 % 0 mm
04:05 -6.7 °C -10.6 °C 34635.4 hPa SW 2.6 km/h 5.1 km/h 64 % 0 mm
04:15 -6.2 °C -10.4 °C 34635.4 hPa WSW 2.6 km/h 5.1 km/h 62 % 0 mm
04:25 -5.7 °C -10.2 °C 34635.4 hPa NW 2.6 km/h 5.1 km/h 60 % 0 mm
04:35 -5.4 °C -10.2 °C 34669.3 hPa NE 5.1 km/h 7.7 km/h 58 % 0 mm
04:45 -5.3 °C -10.1 °C 34669.3 hPa East 7.7 km/h 7.7 km/h 58 % 0 mm
04:55 -5 °C -10 °C 34669.3 hPa SE 5.1 km/h 10.3 km/h 57 % 0 mm
05:05 -4.6 °C -9.9 °C 34669.3 hPa SSE 2.6 km/h 7.7 km/h 55 % 0 mm
05:15 -4.6 °C -9.9 °C 34669.3 hPa South 2.6 km/h 5.1 km/h 55 % 0 mm
05:25 -4.1 °C -9.9 °C 34635.4 hPa South 7.7 km/h 10.3 km/h 52 % 0 mm
05:35 -3.8 °C -9.8 °C 34635.4 hPa SE 2.6 km/h 10.3 km/h 51 % 0 mm
05:45 -3.5 °C -9.7 °C 34635.4 hPa ESE 2.6 km/h 7.7 km/h 50 % 0 mm
05:55 -3.6 °C -10.1 °C 34669.3 hPa ESE 5.1 km/h 15.6 km/h 48 % 0 mm
11:04 -3.3 °C -9.9 °C 34635.4 hPa NE 6.8 km/h 8.5 km/h 48 % 0 mm
11:09 -3.3 °C -10.1 °C 34635.4 hPa SE 11.9 km/h 11.9 km/h 47 % 0 mm
11:14 -3.1 °C -9.9 °C 34635.4 hPa ESE 15 km/h 15 km/h 47 % 0 mm
11:19 -3.1 °C -9.7 °C 34635.4 hPa SW 9.3 km/h 9.3 km/h 48 % 0 mm
11:34 -2.9 °C -9.9 °C 34635.4 hPa ESE 9 km/h 9.3 km/h 46 % 0 mm
11:39 -2.7 °C -10.1 °C 34635.4 hPa ENE 20.9 km/h 20.9 km/h 44 % 0 mm
11:44 -2.5 °C -9.7 °C 34635.4 hPa ENE 11.1 km/h 11.1 km/h 45 % 0 mm
11:49 -2.6 °C -10 °C 34601.5 hPa NNE 15 km/h 15 km/h 44 % 0 mm
11:54 -2.6 °C -10 °C 34601.5 hPa ENE 17.9 km/h 17.9 km/h 44 % 0 mm
11:59 -2.5 °C -9.9 °C 34601.5 hPa ESE 20.3 km/h 20.3 km/h 44 % 0 mm
12:09 -2.4 °C -10 °C 34567.7 hPa NNE 19.6 km/h 19.6 km/h 43 % 0 mm
12:14 -2.3 °C -10.1 °C 34567.7 hPa NE 10.3 km/h 10.3 km/h 42 % 0 mm
12:19 -2.2 °C -10.1 °C 34601.5 hPa ESE 28.2 km/h 28.2 km/h 42 % 0 mm
12:24 -2.4 °C -10.2 °C 34601.5 hPa ENE 26.9 km/h 26.9 km/h 42 % 0 mm
12:29 -2.1 °C -9.9 °C 34601.5 hPa ESE 15 km/h 15 km/h 42 % 0 mm
12:34 -2.1 °C -9.9 °C 34601.5 hPa ENE 20.9 km/h 20.9 km/h 42 % 0 mm
12:39 -2.1 °C -10.1 °C 34601.5 hPa NE 16.6 km/h 16.6 km/h 41 % 0 mm
12:44 -2.1 °C -10.1 °C 34601.5 hPa ENE 25.1 km/h 25.1 km/h 41 % 0 mm
12:49 -2.2 °C -10.3 °C 34601.5 hPa ESE 20.9 km/h 20.9 km/h 41 % 0 mm
12:54 -1.9 °C -10.1 °C 34601.5 hPa NE 17.9 km/h 17.9 km/h 41 % 0 mm
12:59 -1.7 °C -9.8 °C 34601.5 hPa ESE 20.9 km/h 20.9 km/h 41 % 0 mm
13:09 -1.7 °C -10.1 °C 34567.7 hPa South 17.9 km/h 17.9 km/h 40 % 0 mm
13:14 -1.9 °C -10.2 °C 34567.7 hPa ENE 20.9 km/h 20.9 km/h 40 % 0 mm
13:19 -2.1 °C -10.6 °C 34601.5 hPa East 29 km/h 29 km/h 39 % 0 mm
13:24 -2.1 °C -10.6 °C 34601.5 hPa ESE 26.9 km/h 26.9 km/h 39 % 0 mm
13:29 -2.1 °C -10.6 °C 34601.5 hPa ESE 35.7 km/h 35.7 km/h 39 % 0 mm
13:39 -2 °C -10.3 °C 34567.7 hPa ENE 20.9 km/h 22.5 km/h 40 % 0 mm
13:49 -1.8 °C -10.3 °C 34567.7 hPa East 26.9 km/h 26.9 km/h 39 % 0 mm
13:54 -1.3 °C -10.3 °C 34567.7 hPa West 11.1 km/h 11.1 km/h 37 % 0 mm
13:59 -1 °C -10.1 °C 34567.7 hPa SSE 11.1 km/h 11.1 km/h 37 % 0 mm
14:04 -0.8 °C -10.1 °C 34567.7 hPa East 15 km/h 15.3 km/h 36 % 0 mm
14:09 -0.8 °C -10.3 °C 34567.7 hPa SSW 20.9 km/h 20.9 km/h 35 % 0 mm
14:14 -0.6 °C -10.2 °C 34567.7 hPa ESE 15 km/h 15 km/h 35 % 0 mm
14:19 -0.7 °C -10.5 °C 34533.8 hPa SW 17.9 km/h 17.9 km/h 34 % 0 mm
14:29 -0.6 °C -10.4 °C 34533.8 hPa SSE 11.9 km/h 11.9 km/h 34 % 0 mm
14:34 -0.2 °C -10.3 °C 34496.6 hPa West 8 km/h 8 km/h 33 % 0 mm
14:39 -0.3 °C -10.4 °C 34496.6 hPa SSW 23.8 km/h 23.8 km/h 33 % 0 mm
14:44 -0.3 °C -10.4 °C 34496.6 hPa South 9.3 km/h 9.3 km/h 33 % 0 mm
14:49 0 °C -10.4 °C 34533.8 hPa SSW 6 km/h 6 km/h 32 % 0 mm
14:54 -0.3 °C -11 °C 34533.8 hPa SW 18.3 km/h 18.3 km/h 31 % 0 mm
14:59 -0.3 °C -11 °C 34533.8 hPa ESE 14 km/h 14 km/h 31 % 0 mm
15:04 -0.7 °C -10.8 °C 34533.8 hPa West 9 km/h 9 km/h 33 % 0 mm
15:09 -0.6 °C -10.9 °C 34533.8 hPa WSW 12.7 km/h 12.7 km/h 32 % 0 mm
15:14 -0.3 °C -11 °C 34533.8 hPa WSW 15 km/h 15 km/h 31 % 0 mm
15:19 -0.4 °C -11.3 °C 34533.8 hPa SW 11.9 km/h 11.9 km/h 30 % 0 mm
15:24 -0.7 °C -11.6 °C 34533.8 hPa South 17.9 km/h 19.2 km/h 30 % 0 mm
15:29 -0.7 °C -11.6 °C 34533.8 hPa WSW 22 km/h 22 km/h 30 % 0 mm
15:34 -0.4 °C -11.3 °C 34533.8 hPa West 11.9 km/h 11.9 km/h 30 % 0 mm
15:39 -0.3 °C -11.3 °C 34533.8 hPa SSW 23.8 km/h 23.8 km/h 30 % 0 mm
15:44 -0.4 °C -11.3 °C 34533.8 hPa WSW 34.1 km/h 34.1 km/h 30 % 0 mm
15:49 -0.7 °C -11.9 °C 34533.8 hPa SSW 23.8 km/h 23.8 km/h 29 % 0 mm
15:54 -0.6 °C -11.4 °C 34533.8 hPa SW 26.4 km/h 26.4 km/h 30 % 0 mm
15:59 -0.6 °C -11.5 °C 34533.8 hPa West 23.8 km/h 23.8 km/h 30 % 0 mm
16:09 -0.7 °C -11.6 °C 34533.8 hPa SSW 19.2 km/h 19.2 km/h 30 % 0 mm
16:14 -0.8 °C -11.6 °C 34533.8 hPa ESE 26.9 km/h 26.9 km/h 30 % 0 mm
16:19 -0.7 °C -11.6 °C 34496.6 hPa ESE 20.9 km/h 20.9 km/h 30 % 0 mm
16:24 -0.5 °C -11.4 °C 34496.6 hPa WSW 24.3 km/h 24.3 km/h 30 % 0 mm
16:29 -0.9 °C -12 °C 34496.6 hPa SSW 26.9 km/h 26.9 km/h 29 % 0 mm
16:34 -0.8 °C -12 °C 34496.6 hPa SW 25.1 km/h 25.1 km/h 29 % 0 mm
16:39 -1.1 °C -12.2 °C 34496.6 hPa SSW 23.8 km/h 23.8 km/h 29 % 0 mm
16:44 -1.1 °C -12.2 °C 34496.6 hPa WSW 20.9 km/h 20.9 km/h 29 % 0 mm
16:54 -0.8 °C -12 °C 34496.6 hPa SW 11.9 km/h 11.9 km/h 29 % 0 mm
16:59 -0.8 °C -12 °C 34496.6 hPa West 23.8 km/h 23.8 km/h 29 % 0 mm
17:09 -0.9 °C -11.8 °C 34496.6 hPa SW 11.9 km/h 11.9 km/h 30 % 0 mm
17:14 -0.9 °C -11.8 °C 34496.6 hPa SW 17.9 km/h 17.9 km/h 30 % 0 mm
17:19 -1 °C -11.8 °C 34496.6 hPa WSW 23.8 km/h 23.8 km/h 30 % 0 mm
17:24 -1.2 °C -12 °C 34496.6 hPa SW 20.9 km/h 20.9 km/h 30 % 0 mm
17:29 -1.4 °C -11.9 °C 34496.6 hPa SW 35.4 km/h 35.4 km/h 31 % 0 mm
17:34 -1.4 °C -11.9 °C 34496.6 hPa SW 32.8 km/h 32.8 km/h 31 % 0 mm
17:39 -1.3 °C -11.6 °C 34496.6 hPa SW 26.9 km/h 26.9 km/h 32 % 0 mm
17:44 -1.5 °C -11.7 °C 34496.6 hPa SSW 23.8 km/h 23.8 km/h 32 % 0 mm
17:54 -1.3 °C -11.3 °C 34496.6 hPa WSW 16.1 km/h 16.1 km/h 33 % 0 mm
17:59 -1.2 °C -11.2 °C 34496.6 hPa SW 18.3 km/h 18.3 km/h 33 % 0 mm
18:04 -1.6 °C -11.8 °C 34496.6 hPa SW 29.8 km/h 29.8 km/h 32 % 0 mm
18:09 -1.8 °C -11.7 °C 34496.6 hPa WSW 29.8 km/h 29.8 km/h 33 % 0 mm
18:14 -1.7 °C -11.6 °C 34496.6 hPa SSW 17.9 km/h 17.9 km/h 33 % 0 mm
18:19 -1.4 °C -11.7 °C 34462.7 hPa WSW 20.9 km/h 20.9 km/h 32 % 0 mm
18:24 -1.7 °C -11.6 °C 34462.7 hPa SSW 20.9 km/h 20.9 km/h 33 % 0 mm
18:29 -1.9 °C -11.6 °C 34462.7 hPa SW 32.3 km/h 32.3 km/h 34 % 0 mm
18:34 -1.9 °C -11.3 °C 34462.7 hPa SW 22.5 km/h 22.5 km/h 35 % 0 mm
18:39 -2 °C -11.4 °C 34462.7 hPa WSW 23.8 km/h 23.8 km/h 35 % 0 mm
18:44 -1.9 °C -11.1 °C 34462.7 hPa SW 19.2 km/h 19.2 km/h 36 % 0 mm
18:49 -2.1 °C -11.2 °C 34462.7 hPa SSW 20.3 km/h 20.3 km/h 36 % 0 mm
18:59 -2.4 °C -11.5 °C 34462.7 hPa SW 17.9 km/h 17.9 km/h 36 % 0 mm
19:04 -2.3 °C -11.2 °C 34462.7 hPa SSW 9 km/h 9.8 km/h 37 % 0 mm
19:09 -2.4 °C -11.3 °C 34462.7 hPa SW 9.3 km/h 9.3 km/h 37 % 0 mm
19:14 -2.6 °C -11.5 °C 34462.7 hPa SSW 26.9 km/h 26.9 km/h 37 % 0 mm
19:15 -6.3 °C -11.7 °C 34601.5 hPa SW 5.1 km/h 7.7 km/h 54 % 0 mm
19:19 -2.7 °C -11.3 °C 34462.7 hPa SW 17.9 km/h 17.9 km/h 38 % 0 mm
19:24 -2.8 °C -11.4 °C 34462.7 hPa SW 27.2 km/h 27.2 km/h 38 % 0 mm
19:25 -6.4 °C -11.8 °C 34601.5 hPa WSW 5.1 km/h 7.7 km/h 54 % 0 mm
19:29 -3 °C -11.4 °C 34462.7 hPa SSW 35.7 km/h 35.7 km/h 39 % 0 mm
19:35 -6.5 °C -11.7 °C 34601.5 hPa WSW 5.1 km/h 7.7 km/h 55 % 0 mm
19:39 -3.3 °C -11.4 °C 34462.7 hPa SSE 17.9 km/h 17.9 km/h 40 % 0 mm
19:44 -3.3 °C -11.3 °C 34462.7 hPa WSW 11.9 km/h 11.9 km/h 41 % 0 mm
19:45 -6.6 °C -11.8 °C 34601.5 hPa WSW 5.1 km/h 7.7 km/h 55 % 0 mm
19:49 -3.4 °C -11.3 °C 34462.7 hPa SSE 11.9 km/h 11.9 km/h 41 % 0 mm
19:54 -3.3 °C -11.3 °C 34462.7 hPa WSW 9.3 km/h 9.3 km/h 41 % 0 mm
19:55 -6.7 °C -11.8 °C 34567.7 hPa WSW 5.1 km/h 7.7 km/h 56 % 0 mm
19:59 -3.3 °C -11.3 °C 34462.7 hPa South 15 km/h 15 km/h 41 % 0 mm
20:05 -6.7 °C -11.8 °C 34601.5 hPa WSW 5.1 km/h 7.7 km/h 56 % 0 mm
20:14 -3.5 °C -11.2 °C 34496.6 hPa SSE 6.3 km/h 6.3 km/h 42 % 0 mm
20:20 -3.6 °C -11.3 °C 34496.6 hPa WSW 9 km/h 9 km/h 42 % 0 mm
20:25 -6.8 °C -11.5 °C 34567.7 hPa WSW 5.1 km/h 7.7 km/h 58 % 0 mm
20:30 -3.8 °C -11.5 °C 34496.6 hPa SSE 5.6 km/h 5.6 km/h 42 % 0 mm
20:35 -3.8 °C -11.5 °C 34496.6 hPa SSW 9 km/h 9.3 km/h 42 % 0 mm
20:40 -3.9 °C -11.4 °C 34496.6 hPa SSW 9 km/h 9 km/h 43 % 0 mm
20:45 -4 °C -11.5 °C 34496.6 hPa SW 7.7 km/h 12.9 km/h 43 % 0 mm
20:50 -4.2 °C -11.4 °C 34533.8 hPa SW 5.1 km/h 7.7 km/h 44 % 0 mm
21:00 -4.3 °C -11.5 °C 34533.8 hPa Calm   10.3 km/h 44 % 0 mm
21:05 -4.4 °C -11.6 °C 34533.8 hPa SW 7.7 km/h 7.7 km/h 44 % 0 mm
21:10 -4.4 °C -11.5 °C 34533.8 hPa SW 6 km/h 9.3 km/h 45 % 0 mm
21:15 -4.4 °C -11.5 °C 34533.8 hPa SW 7.7 km/h 7.7 km/h 45 % 0 mm
21:20 -4.6 °C -11.6 °C 34533.8 hPa SW 7.7 km/h 7.7 km/h 45 % 0 mm
21:25 -4.7 °C -11.5 °C 34533.8 hPa SW 7.7 km/h 7.7 km/h 46 % 0 mm
21:30 -4.7 °C -11.6 °C 34533.8 hPa Calm   7.7 km/h 46 % 0 mm
21:35 -4.8 °C -11.3 °C 34533.8 hPa Calm   2.6 km/h 48 % 0 mm
21:40 -4.9 °C -11.2 °C 34533.8 hPa Calm   2.6 km/h 49 % 0 mm
21:45 -5 °C -11.3 °C 34533.8 hPa Calm   2.6 km/h 49 % 0 mm
21:50 -5.1 °C -11 °C 34533.8 hPa Calm   2.6 km/h 51 % 0 mm
21:55 -5.1 °C -11.1 °C 34533.8 hPa Calm   2.6 km/h 51 % 0 mm
22:00 -5.2 °C -11.1 °C 34533.8 hPa SSW 3.1 km/h   51 % 0 mm
22:05 -5.2 °C -11.2 °C 34533.8 hPa SSW 3.1 km/h   51 % 0 mm
22:10 -5.3 °C -11.1 °C 34533.8 hPa SSW 3.1 km/h   52 % 0 mm
22:15 -7.3 °C -10.9 °C 34533.8 hPa WSW 5.1 km/h 7.7 km/h 66 % 0 mm
22:20 -5.4 °C -11.2 °C 34533.8 hPa SSW 3.1 km/h   52 % 0 mm
22:25 -5.5 °C -11.2 °C 34533.8 hPa Calm   2.6 km/h 52 % 0 mm
22:30 -5.5 °C -11.1 °C 34533.8 hPa SSW 3.1 km/h   53 % 0 mm
22:35 -5.6 °C -10.9 °C 34533.8 hPa SSW 3.1 km/h   55 % 0 mm
22:40 -5.7 °C -10.8 °C 34533.8 hPa SSW 3.1 km/h   56 % 0 mm
22:45 -5.8 °C -10.7 °C 34533.8 hPa SSW 3.1 km/h   57 % 0 mm
22:50 -5.9 °C -10.8 °C 34567.7 hPa SSW 3.1 km/h   57 % 0 mm
22:55 -5.9 °C -10.9 °C 34567.7 hPa SSW 3.1 km/h   57 % 0 mm
23:00 -5.9 °C -10.9 °C 34567.7 hPa SSW 3.1 km/h   57 % 0 mm
23:05 -6 °C -10.9 °C 34533.8 hPa SSW 3.1 km/h   57 % 0 mm
23:10 -6 °C -11.1 °C 34533.8 hPa SSW 3.1 km/h   56 % 0 mm
23:15 -6 °C -11.2 °C 34533.8 hPa SSW 3.1 km/h   55 % 0 mm
23:20 -6.1 °C -11.3 °C 34567.7 hPa SSW 3.1 km/h   55 % 0 mm
23:25 -6.1 °C -11.4 °C 34567.7 hPa SSW 3.1 km/h   54 % 0 mm
23:30 -6.1 °C -11.4 °C 34567.7 hPa SSW 3.1 km/h   54 % 0 mm
23:35 -6.1 °C -11.4 °C 34567.7 hPa Calm   2.6 km/h 54 % 0 mm
23:40 -6.1 °C -11.5 °C 34567.7 hPa SSW 3.1 km/h   54 % 0 mm
23:45 -6.1 °C -11.5 °C 34567.7 hPa SSW 3.1 km/h   54 % 0 mm
23:50 -6.1 °C -11.5 °C 34567.7 hPa SSW 3.1 km/h   54 % 0 mm
23:55 -6.2 °C -11.6 °C 34567.7 hPa SSW 3.1 km/h   54 % 0 mm
Meteo Sesrovires
Elogis d' Weather Underground - 2 mb

Guio original per  Jim McMurry - jmcmurry@mwt.net Adaptat per a la plantilla per  Wim van der Kuil - Leuven-Template.eu

Trobareu la nostra informacio del temps tambe a:

Weather Underground

AWEKAS